createdAt,value
2018-12-08T00:00:45.618Z,98.50
2018-12-08T00:03:16.467Z,98.60
2018-12-08T00:05:47.070Z,98.20
2018-12-08T00:08:17.658Z,98.20
2018-12-08T00:10:48.235Z,98.40
2018-12-08T00:13:18.768Z,98.10
2018-12-08T00:15:49.358Z,98.00
2018-12-08T00:18:19.933Z,98.00
2018-12-08T00:20:50.456Z,98.10
2018-12-08T00:23:21.014Z,98.00
2018-12-08T00:25:51.818Z,98.10
2018-12-08T00:28:22.375Z,98.20
2018-12-08T00:31:09.217Z,98.00
2018-12-08T00:33:39.914Z,98.10
2018-12-08T00:36:10.416Z,98.40
2018-12-08T00:38:41.076Z,98.20
2018-12-08T00:41:11.558Z,98.30
2018-12-08T00:43:42.370Z,98.30
2018-12-08T00:46:12.978Z,98.40
2018-12-08T00:48:43.555Z,98.40
2018-12-08T00:51:14.127Z,98.00
2018-12-08T00:53:44.661Z,98.10
2018-12-08T00:56:15.254Z,98.20
2018-12-08T00:58:45.776Z,98.30
2018-12-08T01:01:16.377Z,98.20
2018-12-08T01:03:47.109Z,98.20
2018-12-08T01:06:17.654Z,98.20
2018-12-08T01:08:48.295Z,98.90
2018-12-08T01:11:18.823Z,98.80
2018-12-08T01:13:49.474Z,98.90
2018-12-08T01:16:20.236Z,98.70
2018-12-08T01:18:50.825Z,98.80
2018-12-08T01:21:21.408Z,98.70
2018-12-08T01:23:51.923Z,98.60
2018-12-08T01:26:22.514Z,98.50
2018-12-08T01:28:53.254Z,98.50
2018-12-08T01:31:23.927Z,98.60
2018-12-08T01:33:54.550Z,98.60
2018-12-08T01:36:25.066Z,98.40
2018-12-08T01:38:55.694Z,98.50
2018-12-08T01:41:26.214Z,98.50
2018-12-08T01:43:56.814Z,98.40
2018-12-08T01:46:27.385Z,98.00
2018-12-08T01:48:57.980Z,97.80
2018-12-08T01:51:28.573Z,97.80
2018-12-08T01:53:59.545Z,98.10
2018-12-08T01:56:30.200Z,97.80
2018-12-08T01:59:00.800Z,97.60
2018-12-08T02:01:31.394Z,97.80
2018-12-08T02:04:01.938Z,97.60
2018-12-08T02:06:32.441Z,97.70
2018-12-08T02:09:03.459Z,97.70
2018-12-08T02:11:34.023Z,97.70
2018-12-08T02:14:04.866Z,97.70
2018-12-08T02:16:35.432Z,97.50
2018-12-08T02:19:06.137Z,97.40
2018-12-08T02:21:36.712Z,97.20
2018-12-08T02:24:07.574Z,97.40
2018-12-08T02:26:38.133Z,97.30
2018-12-08T02:29:08.774Z,97.30
2018-12-08T02:31:39.413Z,97.10
2018-12-08T02:34:10.084Z,97.20
2018-12-08T02:36:40.664Z,97.50
2018-12-08T02:39:11.280Z,97.00
2018-12-08T02:41:41.790Z,97.10
2018-12-08T02:44:12.585Z,97.10
2018-12-08T02:46:43.161Z,97.10
2018-12-08T02:49:13.859Z,97.10
2018-12-08T02:51:44.435Z,96.90
2018-12-08T02:54:14.991Z,97.10
2018-12-08T02:56:45.449Z,97.10
2018-12-08T02:59:16.066Z,97.20
2018-12-08T03:01:46.677Z,97.10
2018-12-08T03:04:17.261Z,97.10
2018-12-08T03:06:47.853Z,97.20
2018-12-08T03:09:18.552Z,97.20
2018-12-08T03:11:49.099Z,97.30
2018-12-08T03:14:19.676Z,97.30
2018-12-08T03:16:50.179Z,97.10
2018-12-08T03:19:20.827Z,97.10
2018-12-08T03:21:51.410Z,97.00
2018-12-08T03:24:22.032Z,97.20
2018-12-08T03:26:52.552Z,97.10
2018-12-08T03:29:23.114Z,97.30
2018-12-08T03:31:53.632Z,97.20
2018-12-08T03:34:24.215Z,97.30
2018-12-08T03:36:54.749Z,97.20
2018-12-08T03:39:25.427Z,97.10
2018-12-08T03:41:59.030Z,97.00
2018-12-08T03:44:29.966Z,97.00
2018-12-08T03:47:00.568Z,97.00
2018-12-08T03:49:31.234Z,97.20
2018-12-08T03:52:01.761Z,97.20
2018-12-08T03:54:32.329Z,97.20
2018-12-08T03:57:03.497Z,97.20
2018-12-08T03:59:34.035Z,97.20
2018-12-08T04:02:04.612Z,97.20
2018-12-08T04:04:35.137Z,97.40
2018-12-08T04:07:05.798Z,97.30
2018-12-08T04:09:36.330Z,97.30
2018-12-08T04:12:06.898Z,97.30
2018-12-08T04:14:37.849Z,97.20
2018-12-08T04:17:08.398Z,97.30
2018-12-08T04:19:39.094Z,97.30
2018-12-08T04:22:09.651Z,97.30
2018-12-08T04:24:40.231Z,97.40
2018-12-08T04:27:10.819Z,97.30
2018-12-08T04:29:41.374Z,97.50
2018-12-08T04:32:12.011Z,97.50
2018-12-08T04:34:42.643Z,97.80
2018-12-08T04:37:13.244Z,97.90
2018-12-08T04:39:44.213Z,98.20
2018-12-08T04:42:14.756Z,98.20
2018-12-08T04:44:45.572Z,98.30
2018-12-08T04:47:16.011Z,98.20
2018-12-08T04:49:46.564Z,98.30
2018-12-08T04:52:17.135Z,98.30
2018-12-08T04:54:47.985Z,98.40
2018-12-08T04:57:18.556Z,98.40
2018-12-08T04:59:49.410Z,98.40
2018-12-08T05:02:19.910Z,98.80
2018-12-08T05:04:50.639Z,98.60
2018-12-08T05:07:21.218Z,98.70
2018-12-08T05:09:51.853Z,98.70
2018-12-08T05:12:22.369Z,98.90
2018-12-08T05:14:53.055Z,98.90
2018-12-08T05:17:23.691Z,99.10
2018-12-08T05:19:54.236Z,99.20
2018-12-08T05:22:24.839Z,99.20
2018-12-08T05:24:55.463Z,99.30
2018-12-08T05:27:26.053Z,99.30
2018-12-08T05:29:56.729Z,99.40
2018-12-08T05:32:27.257Z,99.50
2018-12-08T05:34:57.830Z,99.50
2018-12-08T05:37:28.341Z,99.60
2018-12-08T05:39:58.938Z,99.60
2018-12-08T05:42:29.457Z,99.60
2018-12-08T05:45:00.117Z,99.60
2018-12-08T05:47:30.686Z,99.60
2018-12-08T05:50:01.297Z,99.70
2018-12-08T05:52:31.814Z,99.60
2018-12-08T05:55:02.326Z,99.60
2018-12-08T05:57:32.850Z,99.50
2018-12-08T06:00:03.600Z,99.50
2018-12-08T06:02:34.072Z,99.50
2018-12-08T06:05:04.803Z,99.60
2018-12-08T06:07:35.519Z,99.70
2018-12-08T06:10:06.888Z,99.90
2018-12-08T06:12:37.455Z,99.80
2018-12-08T06:15:08.174Z,99.90
2018-12-08T06:17:38.638Z,99.90
2018-12-08T06:20:09.525Z,99.90
2018-12-08T06:22:40.120Z,99.90
2018-12-08T06:25:19.040Z,99.90
2018-12-08T06:28:07.012Z,99.90
2018-12-08T06:30:37.498Z,99.90
2018-12-08T06:33:08.034Z,99.90
2018-12-08T06:35:38.631Z,99.90
2018-12-08T06:38:09.230Z,99.90
2018-12-08T06:40:39.844Z,99.90
2018-12-08T06:43:17.131Z,99.90
2018-12-08T06:45:47.757Z,99.90
2018-12-08T06:48:18.238Z,99.90
2018-12-08T06:50:48.815Z,99.90
2018-12-08T06:53:19.418Z,99.90
2018-12-08T06:55:49.983Z,99.90
2018-12-08T06:58:20.755Z,99.90
2018-12-08T07:00:51.330Z,99.90
2018-12-08T07:03:21.818Z,99.90
2018-12-08T07:05:52.333Z,99.90
2018-12-08T07:08:23.234Z,99.90
2018-12-08T07:10:53.851Z,99.90
2018-12-08T07:13:24.567Z,99.90
2018-12-08T07:15:55.506Z,99.90
2018-12-08T07:18:26.307Z,99.90
2018-12-08T07:20:57.909Z,99.90
2018-12-08T07:23:34.041Z,99.90
2018-12-08T07:26:04.558Z,99.90
2018-12-08T07:30:46.325Z,99.70
2018-12-08T07:33:16.862Z,99.90
2018-12-08T07:35:47.588Z,99.90
2018-12-08T07:38:18.175Z,99.90
2018-12-08T07:40:48.701Z,99.90
2018-12-08T07:43:19.200Z,99.90
2018-12-08T07:45:49.710Z,99.90
2018-12-08T07:48:20.134Z,99.90
2018-12-08T07:50:50.603Z,99.90
2018-12-08T07:53:20.928Z,99.90
2018-12-08T07:55:51.690Z,99.90
2018-12-08T07:58:26.610Z,99.90
2018-12-08T08:00:57.141Z,99.90
2018-12-08T08:03:27.668Z,99.90
2018-12-08T08:05:58.087Z,99.90
2018-12-08T08:08:28.606Z,99.90
2018-12-08T08:10:59.244Z,99.90
2018-12-08T08:13:29.821Z,99.90
2018-12-08T08:16:00.336Z,99.90
2018-12-08T08:18:31.062Z,99.90
2018-12-08T08:21:01.561Z,99.90
2018-12-08T08:23:32.481Z,99.90
2018-12-08T08:26:03.081Z,99.90
2018-12-08T08:28:41.730Z,99.90
2018-12-08T08:34:37.640Z,99.90
2018-12-08T08:37:09.541Z,99.90
2018-12-08T08:39:40.315Z,99.90
2018-12-08T08:42:10.951Z,99.90
2018-12-08T08:44:41.527Z,99.90
2018-12-08T08:47:11.939Z,99.90
2018-12-08T08:49:42.550Z,99.90
2018-12-08T08:52:13.063Z,99.90
2018-12-08T08:54:43.739Z,99.90
2018-12-08T08:57:14.395Z,99.90
2018-12-08T08:59:44.870Z,99.90
2018-12-08T09:02:15.413Z,99.90
2018-12-08T09:05:02.781Z,99.90
2018-12-08T09:07:34.698Z,99.90
2018-12-08T09:10:07.776Z,99.90
2018-12-08T09:12:38.400Z,99.90
2018-12-08T09:15:10.069Z,99.90
2018-12-08T09:17:40.687Z,99.90
2018-12-08T09:20:12.956Z,99.90
2018-12-08T09:22:43.579Z,99.90
2018-12-08T09:25:14.110Z,99.90
2018-12-08T09:27:44.648Z,99.90
2018-12-08T09:30:15.181Z,99.90
2018-12-08T09:32:45.797Z,99.90
2018-12-08T09:35:16.338Z,99.90
2018-12-08T09:37:46.945Z,99.90
2018-12-08T09:40:17.477Z,99.90
2018-12-08T09:42:48.143Z,99.90
2018-12-08T09:45:18.644Z,99.90
2018-12-08T09:47:49.193Z,99.90
2018-12-08T09:50:19.818Z,99.90
2018-12-08T09:53:05.511Z,99.90
2018-12-08T09:55:36.215Z,99.90
2018-12-08T09:58:06.767Z,99.90
2018-12-08T10:00:37.383Z,99.90
2018-12-08T10:03:08.087Z,99.90
2018-12-08T10:05:38.705Z,99.90
2018-12-08T10:08:09.216Z,99.90
2018-12-08T10:10:40.093Z,99.90
2018-12-08T10:13:10.853Z,99.90
2018-12-08T10:15:41.412Z,99.90
2018-12-08T10:18:11.976Z,99.90
2018-12-08T10:20:46.330Z,99.90
2018-12-08T10:23:16.970Z,99.90
2018-12-08T10:25:47.558Z,99.90
2018-12-08T10:28:18.295Z,99.90
2018-12-08T10:30:48.995Z,99.90
2018-12-08T10:33:38.275Z,99.90
2018-12-08T10:46:08.023Z,99.90
2018-12-08T10:48:44.240Z,99.90
2018-12-08T10:51:17.710Z,99.90
2018-12-08T10:53:49.556Z,99.90
2018-12-08T10:56:20.338Z,99.90
2018-12-08T10:58:50.869Z,99.90
2018-12-08T11:04:45.994Z,99.90
2018-12-08T11:07:42.466Z,99.90
2018-12-08T11:10:15.898Z,99.90
2018-12-08T11:12:46.737Z,99.90
2018-12-08T11:15:20.925Z,99.90
2018-12-08T11:17:57.835Z,99.90
2018-12-08T11:20:35.967Z,99.90
2018-12-08T11:26:26.348Z,99.90
2018-12-08T11:30:14.486Z,99.90
2018-12-08T11:32:45.270Z,99.90
2018-12-08T11:35:23.707Z,99.90
2018-12-08T11:38:10.173Z,99.90
2018-12-08T11:40:42.104Z,99.90
2018-12-08T11:43:40.405Z,99.90
2018-12-08T11:46:39.191Z,99.90
2018-12-08T11:49:09.739Z,99.90
2018-12-08T11:51:40.253Z,99.90
2018-12-08T11:54:13.980Z,99.90
2018-12-08T12:04:11.598Z,99.90
2018-12-08T12:06:56.318Z,99.90
2018-12-08T12:09:26.742Z,99.90
2018-12-08T12:11:57.227Z,99.90
2018-12-08T12:14:44.070Z,99.90
2018-12-08T12:17:14.533Z,99.90
2018-12-08T12:19:44.957Z,99.90
2018-12-08T12:22:15.332Z,99.90
2018-12-08T12:24:46.278Z,99.90
2018-12-08T12:27:18.645Z,99.90
2018-12-08T12:29:49.967Z,99.90
2018-12-08T12:32:20.895Z,99.90
2018-12-08T12:34:51.838Z,99.90
2018-12-08T12:37:22.829Z,99.90
2018-12-08T12:39:54.697Z,99.90
2018-12-08T12:42:25.667Z,99.90
2018-12-08T12:44:56.569Z,99.90
2018-12-08T12:47:28.388Z,99.90
2018-12-08T12:50:00.446Z,99.90
2018-12-08T12:52:31.782Z,99.90
2018-12-08T12:55:03.010Z,99.90
2018-12-08T12:57:34.070Z,99.90
2018-12-08T13:00:06.046Z,99.90
2018-12-08T13:02:37.309Z,99.90
2018-12-08T13:05:08.699Z,99.90
2018-12-08T13:07:39.905Z,99.90
2018-12-08T13:10:11.558Z,99.90
2018-12-08T13:12:49.079Z,99.90
2018-12-08T13:15:20.410Z,99.90
2018-12-08T13:17:51.691Z,99.90
2018-12-08T13:20:22.970Z,99.90
2018-12-08T13:22:54.036Z,99.90
2018-12-08T13:25:27.585Z,99.90
2018-12-08T13:27:58.886Z,99.90
2018-12-08T13:30:29.979Z,99.90
2018-12-08T13:33:01.368Z,99.90
2018-12-08T13:35:56.403Z,99.90
2018-12-08T13:38:27.796Z,99.90
2018-12-08T13:40:59.214Z,99.90
2018-12-08T13:43:30.587Z,99.90
2018-12-08T13:46:02.474Z,99.90
2018-12-08T13:48:34.995Z,99.90
2018-12-08T13:51:06.285Z,99.90
2018-12-08T13:53:37.369Z,99.90
2018-12-08T13:56:08.888Z,99.90
2018-12-08T13:58:39.986Z,99.90
2018-12-08T14:01:12.837Z,99.90
2018-12-08T14:03:45.054Z,99.90
2018-12-08T14:06:16.187Z,99.90
2018-12-08T14:08:47.457Z,99.90
2018-12-08T14:11:18.928Z,99.90
2018-12-08T14:13:50.292Z,99.90
2018-12-08T14:16:21.575Z,99.90
2018-12-08T14:18:52.826Z,99.90
2018-12-08T14:21:24.151Z,99.90
2018-12-08T14:23:55.569Z,99.90
2018-12-08T14:26:27.047Z,99.90
2018-12-08T14:28:58.563Z,99.90
2018-12-08T14:31:30.281Z,99.90
2018-12-08T14:34:02.576Z,99.90
2018-12-08T14:36:34.190Z,99.90
2018-12-08T14:39:10.270Z,99.90
2018-12-08T14:41:50.925Z,99.90
2018-12-08T14:44:31.675Z,99.90
2018-12-08T14:47:04.515Z,99.90
2018-12-08T14:52:49.486Z,99.90
2018-12-08T14:55:31.646Z,99.90
2018-12-08T14:58:42.127Z,99.90
2018-12-08T15:01:14.564Z,99.90
2018-12-08T15:03:46.333Z,99.90
2018-12-08T15:06:18.448Z,99.90
2018-12-08T15:08:50.299Z,99.90
2018-12-08T15:11:22.416Z,99.90
2018-12-08T15:13:54.431Z,99.90
2018-12-08T15:16:25.959Z,99.90
2018-12-08T15:18:58.379Z,99.90
2018-12-08T15:21:29.920Z,99.90
2018-12-08T15:24:01.629Z,99.90
2018-12-08T15:26:33.227Z,99.90
2018-12-08T15:29:06.260Z,99.90
2018-12-08T15:31:38.216Z,99.90
2018-12-08T15:34:12.984Z,99.90
2018-12-08T15:36:44.594Z,99.90
2018-12-08T15:39:16.293Z,99.90
2018-12-08T15:41:48.033Z,99.90
2018-12-08T15:44:20.427Z,99.90
2018-12-08T15:46:52.384Z,99.80
2018-12-08T15:49:24.666Z,99.60
2018-12-08T15:52:01.992Z,99.70
2018-12-08T15:54:35.215Z,99.80
2018-12-08T15:57:07.777Z,99.60
2018-12-08T15:59:42.906Z,99.70
2018-12-08T16:02:15.993Z,99.80
2018-12-08T16:04:47.766Z,99.50
2018-12-08T16:07:20.838Z,99.60
2018-12-08T16:09:55.504Z,99.50
2018-12-08T16:12:27.742Z,99.40
2018-12-08T16:15:00.118Z,99.40
2018-12-08T16:17:33.698Z,99.30
2018-12-08T16:20:11.319Z,99.00
2018-12-08T16:22:43.399Z,99.00
2018-12-08T16:25:16.465Z,98.90
2018-12-08T16:27:48.459Z,99.10
2018-12-08T16:30:21.306Z,99.10
2018-12-08T16:32:54.648Z,99.10
2018-12-08T16:35:28.377Z,99.00
2018-12-08T16:38:02.079Z,98.60
2018-12-08T16:40:34.615Z,98.50
2018-12-08T16:43:13.736Z,98.60
2018-12-08T16:45:46.060Z,98.50
2018-12-08T16:48:18.021Z,98.50
2018-12-08T16:50:50.258Z,98.60
2018-12-08T16:53:24.780Z,98.40
2018-12-08T16:55:58.841Z,98.40
2018-12-08T16:58:32.100Z,97.80
2018-12-08T17:01:05.175Z,97.70
2018-12-08T17:03:37.335Z,98.00
2018-12-08T17:06:09.288Z,98.00
2018-12-08T17:08:42.378Z,98.00
2018-12-08T17:11:14.237Z,98.00
2018-12-08T17:14:13.255Z,97.90
2018-12-08T17:16:45.439Z,97.90
2018-12-08T17:19:17.267Z,97.90
2018-12-08T17:21:49.449Z,97.80
2018-12-08T17:24:21.216Z,97.80
2018-12-08T17:26:57.201Z,97.50
2018-12-08T17:29:30.425Z,97.80
2018-12-08T17:32:02.461Z,97.70
2018-12-08T17:34:34.331Z,97.50
2018-12-08T17:37:07.115Z,97.50
2018-12-08T17:39:38.771Z,97.90
2018-12-08T17:42:10.604Z,97.60
2018-12-08T17:44:43.389Z,97.70
2018-12-08T17:47:15.649Z,97.20
2018-12-08T17:49:47.964Z,97.40
2018-12-08T17:52:20.677Z,97.50
2018-12-08T17:54:53.339Z,97.70
2018-12-08T17:57:25.397Z,97.30
2018-12-08T17:59:57.286Z,97.40
2018-12-08T18:02:30.712Z,97.50
2018-12-08T18:05:03.053Z,97.60
2018-12-08T18:07:36.241Z,97.50
2018-12-08T18:10:10.267Z,97.50
2018-12-08T18:12:42.349Z,97.50
2018-12-08T18:15:15.674Z,97.50
2018-12-08T18:17:48.645Z,97.30
2018-12-08T18:20:22.312Z,97.50
2018-12-08T18:22:56.096Z,97.30
2018-12-08T18:25:29.109Z,97.60
2018-12-08T18:28:01.527Z,97.60
2018-12-08T18:30:34.791Z,97.90
2018-12-08T18:33:13.926Z,97.90
2018-12-08T18:35:45.777Z,98.10
2018-12-08T18:38:17.579Z,98.60
2018-12-08T18:40:49.234Z,99.40
2018-12-08T18:43:21.488Z,99.40
2018-12-08T18:45:53.200Z,99.60
2018-12-08T18:48:36.819Z,99.90
2018-12-08T18:51:10.767Z,99.90
2018-12-08T18:53:46.688Z,99.90
2018-12-08T18:56:23.059Z,99.90
2018-12-08T18:59:03.446Z,99.90
2018-12-08T19:01:46.021Z,99.90
2018-12-08T19:04:28.459Z,99.90
2018-12-08T19:07:25.926Z,99.90
2018-12-08T19:10:11.007Z,99.90
2018-12-08T19:12:46.394Z,99.90
2018-12-08T19:15:21.275Z,99.90
2018-12-08T19:18:00.114Z,99.90
2018-12-08T19:20:33.029Z,99.90
2018-12-08T19:23:06.186Z,99.90
2018-12-08T19:25:38.132Z,99.90
2018-12-08T19:28:10.515Z,99.90
2018-12-08T19:30:42.200Z,99.90
2018-12-08T19:33:14.648Z,99.90
2018-12-08T19:35:46.837Z,99.90
2018-12-08T19:38:23.398Z,99.90
2018-12-08T19:40:56.837Z,99.90
2018-12-08T19:43:30.414Z,99.90
2018-12-08T19:46:06.684Z,99.90
2018-12-08T19:48:42.406Z,99.90
2018-12-08T19:51:23.126Z,99.90
2018-12-08T19:54:01.098Z,99.90
2018-12-08T19:56:35.127Z,99.90
2018-12-08T19:59:06.929Z,99.90
2018-12-08T20:01:38.725Z,99.90
2018-12-08T20:04:12.379Z,99.90
2018-12-08T20:06:44.816Z,99.90
2018-12-08T20:09:17.852Z,99.90
2018-12-08T20:11:51.992Z,99.90
2018-12-08T20:14:27.044Z,99.90
2018-12-08T20:17:03.199Z,99.90
2018-12-08T20:19:36.686Z,99.90
2018-12-08T20:22:16.366Z,99.90
2018-12-08T20:24:56.286Z,99.90
2018-12-08T20:27:37.138Z,99.90
2018-12-08T20:30:16.191Z,99.90
2018-12-08T20:32:52.078Z,99.90
2018-12-08T20:35:29.696Z,99.90
2018-12-08T20:38:15.640Z,99.90
2018-12-08T20:43:03.063Z,99.90
2018-12-08T20:45:53.388Z,99.90
2018-12-08T20:48:27.467Z,99.90
2018-12-08T20:51:00.788Z,99.90
2018-12-08T20:53:37.927Z,99.90
2018-12-08T20:56:15.379Z,99.90
2018-12-08T20:58:51.798Z,99.90
2018-12-08T21:01:38.946Z,99.90
2018-12-08T21:04:16.426Z,99.90
2018-12-08T21:07:11.540Z,99.90
2018-12-08T21:10:03.696Z,99.90
2018-12-08T21:12:54.130Z,99.90
2018-12-08T21:15:53.301Z,99.90
2018-12-08T21:19:04.766Z,99.90
2018-12-08T21:22:13.608Z,99.90
2018-12-08T21:28:11.307Z,99.90
2018-12-08T21:31:16.560Z,99.90
2018-12-08T21:33:57.065Z,99.90
2018-12-08T21:36:52.475Z,99.90
2018-12-08T21:39:35.356Z,99.90
2018-12-08T21:59:36.598Z,99.90
2018-12-08T22:05:43.792Z,99.90
2018-12-08T22:11:55.558Z,99.90
2018-12-08T22:43:56.874Z,99.90
2018-12-08T22:46:51.725Z,99.90
2018-12-08T22:49:32.227Z,99.90
2018-12-08T22:52:03.140Z,99.90
2018-12-08T22:54:34.639Z,99.90
2018-12-08T22:57:05.437Z,99.90
2018-12-08T22:59:36.099Z,99.90
2018-12-08T23:02:07.037Z,99.90
2018-12-08T23:04:37.892Z,99.90
2018-12-08T23:07:12.257Z,99.90
2018-12-08T23:09:46.947Z,99.90
2018-12-08T23:12:18.219Z,99.90
2018-12-08T23:14:56.684Z,99.90
2018-12-08T23:17:29.397Z,99.90
2018-12-08T23:20:02.156Z,99.90
2018-12-08T23:22:33.399Z,99.90
2018-12-08T23:25:04.848Z,99.90
2018-12-08T23:27:36.078Z,99.90
2018-12-08T23:30:08.234Z,99.90
2018-12-08T23:32:39.415Z,99.90
2018-12-08T23:35:10.544Z,99.90
2018-12-08T23:37:50.634Z,99.90
